createdAt,value
2023-12-09T00:01:21.000Z,11.57
2023-12-09T00:03:48.769Z,14.82
2023-12-09T00:06:16.646Z,15.60
2023-12-09T00:08:45.473Z,13.80
2023-12-09T00:11:13.124Z,15.25
2023-12-09T00:13:40.707Z,10.05
2023-12-09T00:16:08.902Z,13.88
2023-12-09T00:18:37.998Z,14.00
2023-12-09T00:21:06.418Z,13.25
2023-12-09T00:23:34.065Z,13.43
2023-12-09T00:26:01.607Z,9.90
2023-12-09T00:28:29.194Z,11.48
2023-12-09T00:30:56.917Z,15.27
2023-12-09T00:33:24.823Z,12.80
2023-12-09T00:35:53.928Z,16.95
2023-12-09T00:38:21.603Z,13.07
2023-12-09T00:40:49.197Z,12.32
2023-12-09T00:43:16.735Z,11.80
2023-12-09T00:45:44.261Z,13.48
2023-12-09T00:48:11.938Z,10.55
2023-12-09T00:50:39.645Z,11.35
2023-12-09T00:53:08.648Z,10.93
2023-12-09T00:55:36.259Z,13.10
2023-12-09T00:58:03.821Z,13.35
2023-12-09T01:00:31.461Z,12.93
2023-12-09T01:02:59.183Z,11.68
2023-12-09T01:05:26.885Z,11.85
2023-12-09T01:07:54.517Z,11.80
2023-12-09T01:10:23.495Z,14.27
2023-12-09T01:12:51.202Z,11.27
2023-12-09T01:15:18.944Z,12.57
2023-12-09T01:17:46.668Z,13.32
2023-12-09T01:20:15.298Z,13.40
2023-12-09T01:22:42.877Z,14.45
2023-12-09T01:25:10.669Z,11.70
2023-12-09T01:27:39.669Z,14.40
2023-12-09T01:30:08.669Z,11.27
2023-12-09T01:32:36.331Z,13.35
2023-12-09T01:35:04.878Z,11.63
2023-12-09T01:37:32.519Z,11.27
2023-12-09T01:40:00.141Z,12.43
2023-12-09T01:42:27.976Z,12.52
2023-12-09T01:44:57.206Z,12.18
2023-12-09T01:47:25.028Z,10.65
2023-12-09T01:49:53.095Z,13.23
2023-12-09T01:52:20.927Z,12.73
2023-12-09T01:54:48.640Z,9.73
2023-12-09T01:57:16.532Z,14.63
2023-12-09T01:59:44.387Z,14.38
2023-12-09T02:02:13.396Z,14.45
2023-12-09T02:04:41.902Z,13.38
2023-12-09T02:07:09.615Z,14.40
2023-12-09T02:09:40.581Z,14.15
2023-12-09T02:12:17.058Z,18.05
2023-12-09T02:14:54.111Z,15.32
2023-12-09T02:17:28.329Z,15.05
2023-12-09T02:19:56.285Z,13.20
2023-12-09T02:22:24.031Z,15.82
2023-12-09T02:24:53.111Z,15.77
2023-12-09T02:27:28.784Z,16.65
2023-12-09T02:30:05.885Z,16.38
2023-12-09T02:32:36.590Z,15.50
2023-12-09T02:35:06.978Z,17.67
2023-12-09T02:37:36.496Z,16.95
2023-12-09T02:40:10.797Z,13.25
2023-12-09T02:42:39.683Z,16.13
2023-12-09T02:45:09.002Z,19.75
2023-12-09T02:47:36.750Z,17.15
2023-12-09T02:50:04.938Z,18.95
2023-12-09T02:52:32.538Z,14.32
2023-12-09T02:55:00.211Z,17.63
2023-12-09T02:57:29.167Z,15.18
2023-12-09T02:59:56.825Z,15.82
2023-12-09T03:02:24.515Z,16.77
2023-12-09T03:04:52.218Z,14.38
2023-12-09T03:07:21.574Z,13.07
2023-12-09T03:09:49.312Z,14.23
2023-12-09T03:12:17.095Z,17.40
2023-12-09T03:14:46.103Z,14.63
2023-12-09T03:17:13.869Z,12.63
2023-12-09T03:19:42.262Z,15.10
2023-12-09T03:22:10.103Z,12.52
2023-12-09T03:24:37.801Z,14.32
2023-12-09T03:27:05.989Z,14.68
2023-12-09T03:29:32.603Z,14.05
2023-12-09T03:32:01.548Z,12.30
2023-12-09T03:34:29.527Z,10.82
2023-12-09T03:36:57.196Z,12.35
2023-12-09T03:39:25.078Z,13.48
2023-12-09T03:41:52.877Z,13.48
2023-12-09T03:44:20.524Z,13.80
2023-12-09T03:46:48.223Z,12.15
2023-12-09T03:49:17.162Z,12.95
2023-12-09T03:51:44.779Z,11.75
2023-12-09T03:54:12.431Z,10.70
2023-12-09T03:56:40.030Z,14.27
2023-12-09T03:59:07.798Z,13.63
2023-12-09T04:01:35.516Z,13.23
2023-12-09T04:04:03.204Z,18.95
2023-12-09T04:06:33.416Z,14.27
2023-12-09T04:09:01.581Z,12.90
2023-12-09T04:11:29.217Z,9.77
2023-12-09T04:13:56.855Z,9.18
2023-12-09T04:16:24.531Z,8.93
2023-12-09T04:18:52.329Z,11.93
2023-12-09T04:21:20.109Z,9.77
2023-12-09T04:23:49.136Z,10.55
2023-12-09T04:26:18.051Z,13.27
2023-12-09T04:28:46.266Z,12.80
2023-12-09T04:31:14.005Z,13.23
2023-12-09T04:33:41.774Z,17.67
2023-12-09T04:36:10.094Z,11.63
2023-12-09T04:38:37.747Z,16.42
2023-12-09T04:41:07.081Z,13.60
2023-12-09T04:43:34.736Z,11.55
2023-12-09T04:46:02.352Z,15.55
2023-12-09T04:48:30.177Z,13.75
2023-12-09T04:50:57.853Z,13.52
2023-12-09T04:53:25.438Z,11.43
2023-12-09T04:55:53.028Z,12.32
2023-12-09T04:58:21.934Z,11.75
2023-12-09T05:00:49.515Z,11.90
2023-12-09T05:03:17.209Z,14.30
2023-12-09T05:05:44.940Z,12.38
2023-12-09T05:08:12.550Z,12.77
2023-12-09T05:10:40.193Z,12.13
2023-12-09T05:13:07.757Z,11.82
2023-12-09T05:15:36.752Z,12.05
2023-12-09T05:18:04.507Z,17.48
2023-12-09T05:20:32.163Z,13.60
2023-12-09T05:22:59.785Z,13.15
2023-12-09T05:25:27.344Z,13.52
2023-12-09T05:27:54.966Z,13.25
2023-12-09T05:30:23.376Z,11.48
2023-12-09T05:32:52.675Z,14.18
2023-12-09T05:35:20.284Z,11.88
2023-12-09T05:37:47.925Z,14.48
2023-12-09T05:40:16.014Z,13.80
2023-12-09T05:42:43.753Z,13.73
2023-12-09T05:45:12.205Z,12.13
2023-12-09T05:47:39.889Z,12.40
2023-12-09T05:50:11.045Z,10.48
2023-12-09T05:52:38.717Z,11.68
2023-12-09T05:55:07.203Z,13.15
2023-12-09T05:57:34.850Z,12.07
2023-12-09T06:00:02.593Z,14.13
2023-12-09T06:02:32.385Z,11.02
2023-12-09T06:04:59.930Z,13.27
2023-12-09T06:07:28.859Z,13.30
2023-12-09T06:09:57.040Z,13.27
2023-12-09T06:12:24.813Z,12.27
2023-12-09T06:14:52.916Z,12.85
2023-12-09T06:17:20.440Z,23.73
2023-12-09T06:19:48.123Z,19.48
2023-12-09T06:22:15.673Z,13.15
2023-12-09T06:24:46.128Z,9.93
2023-12-09T06:27:14.326Z,12.25
2023-12-09T06:29:41.968Z,11.93
2023-12-09T06:32:09.535Z,12.82
2023-12-09T06:34:37.214Z,12.55
2023-12-09T06:37:05.326Z,14.68
2023-12-09T06:39:33.031Z,15.35
2023-12-09T06:42:02.338Z,13.45
2023-12-09T06:44:30.025Z,13.35
2023-12-09T06:46:57.609Z,13.95
2023-12-09T06:49:25.286Z,13.98
2023-12-09T06:51:52.959Z,10.13
2023-12-09T06:54:20.671Z,12.50
2023-12-09T06:56:48.265Z,11.10
2023-12-09T06:59:17.150Z,19.27
2023-12-09T07:01:44.849Z,14.43
2023-12-09T07:04:13.681Z,11.25
2023-12-09T07:06:41.487Z,11.25
2023-12-09T07:09:09.567Z,8.05
2023-12-09T07:11:37.773Z,10.27
2023-12-09T07:14:05.355Z,10.20
2023-12-09T07:16:34.486Z,13.10
2023-12-09T07:19:02.474Z,7.95
2023-12-09T07:21:30.386Z,11.02
2023-12-09T07:23:58.324Z,12.50
2023-12-09T07:26:25.913Z,10.23
2023-12-09T07:28:53.492Z,9.65
2023-12-09T07:31:21.298Z,10.00
2023-12-09T07:33:50.358Z,6.72
2023-12-09T07:36:18.400Z,7.85
2023-12-09T07:38:45.948Z,7.72
2023-12-09T07:41:13.699Z,6.72
2023-12-09T07:43:41.283Z,9.00
2023-12-09T07:46:08.918Z,9.10
2023-12-09T07:48:36.660Z,13.02
2023-12-09T07:51:06.405Z,7.22
2023-12-09T07:53:34.024Z,11.88
2023-12-09T07:56:01.624Z,7.50
2023-12-09T07:58:29.174Z,9.48
2023-12-09T08:00:59.787Z,8.18
2023-12-09T08:03:27.791Z,8.18
2023-12-09T08:05:55.506Z,12.38
2023-12-09T08:08:24.630Z,10.98
2023-12-09T08:10:52.253Z,6.32
2023-12-09T08:13:19.908Z,8.18
2023-12-09T08:15:47.496Z,6.68
2023-12-09T08:18:15.168Z,8.73
2023-12-09T08:20:42.930Z,6.18
2023-12-09T08:23:10.577Z,7.88
2023-12-09T08:25:39.586Z,6.22
2023-12-09T08:28:08.202Z,6.53
2023-12-09T08:30:35.789Z,6.18
2023-12-09T08:33:04.743Z,6.63
2023-12-09T08:35:32.498Z,7.13
2023-12-09T08:38:00.214Z,5.55
2023-12-09T08:40:28.020Z,7.50
2023-12-09T08:42:56.953Z,6.72
2023-12-09T08:45:25.130Z,6.75
2023-12-09T08:47:53.363Z,6.28
2023-12-09T08:50:23.660Z,6.97
2023-12-09T08:52:53.801Z,8.38
2023-12-09T08:55:22.153Z,6.22
2023-12-09T08:57:50.454Z,6.80
2023-12-09T09:00:22.142Z,5.20
2023-12-09T09:02:50.692Z,5.35
2023-12-09T09:05:18.351Z,5.57
2023-12-09T09:07:46.234Z,3.25
2023-12-09T09:10:13.889Z,6.57
2023-12-09T09:12:41.610Z,5.22
2023-12-09T09:15:10.672Z,6.95
2023-12-09T09:17:40.694Z,6.15
2023-12-09T09:20:09.463Z,5.55
2023-12-09T09:22:37.525Z,6.25
2023-12-09T09:25:05.663Z,6.43
2023-12-09T09:27:33.406Z,3.88
2023-12-09T09:30:01.291Z,7.97
2023-12-09T09:32:29.404Z,5.03
2023-12-09T09:34:58.644Z,4.50
2023-12-09T09:37:26.315Z,2.95
2023-12-09T09:39:55.021Z,4.55
2023-12-09T09:42:31.935Z,4.22
2023-12-09T09:45:09.435Z,3.88
2023-12-09T09:47:38.941Z,4.38
2023-12-09T09:50:09.519Z,5.72
2023-12-09T09:52:38.054Z,4.03
2023-12-09T09:55:07.916Z,4.75
2023-12-09T09:57:36.191Z,9.38
2023-12-09T10:00:13.699Z,4.75
2023-12-09T10:02:43.711Z,6.45
2023-12-09T10:05:13.806Z,6.13
2023-12-09T10:07:41.659Z,5.70
2023-12-09T10:10:10.176Z,5.43
2023-12-09T10:12:38.267Z,5.25
2023-12-09T10:15:07.443Z,6.78
2023-12-09T10:17:35.675Z,6.57
2023-12-09T10:20:06.785Z,6.18
2023-12-09T10:22:37.592Z,6.57
2023-12-09T10:25:05.921Z,5.55
2023-12-09T10:27:34.864Z,5.15
2023-12-09T10:30:03.300Z,7.60
2023-12-09T10:32:31.318Z,9.23
2023-12-09T10:35:02.402Z,7.80
2023-12-09T10:37:32.881Z,7.32
2023-12-09T10:40:04.692Z,6.40
2023-12-09T10:42:32.940Z,8.35
2023-12-09T10:45:04.151Z,8.35
2023-12-09T10:47:32.014Z,5.65
2023-12-09T10:49:59.750Z,6.35
2023-12-09T10:52:27.636Z,5.53
2023-12-09T10:54:55.505Z,5.25
2023-12-09T10:57:25.681Z,4.40
2023-12-09T10:59:54.074Z,6.63
2023-12-09T11:02:23.285Z,4.97
2023-12-09T11:04:52.181Z,6.68
2023-12-09T11:07:20.409Z,8.55
2023-12-09T11:09:48.374Z,7.82
2023-12-09T11:12:29.469Z,5.85
2023-12-09T11:15:01.823Z,9.02
2023-12-09T11:17:36.588Z,5.18
2023-12-09T11:20:11.888Z,4.13
2023-12-09T11:22:48.915Z,5.35
2023-12-09T11:25:23.701Z,4.75
2023-12-09T11:27:52.374Z,6.00
2023-12-09T11:30:34.774Z,5.57
2023-12-09T11:33:04.321Z,4.85
2023-12-09T11:35:34.204Z,5.80
2023-12-09T11:38:05.540Z,4.60
2023-12-09T11:40:34.221Z,5.70
2023-12-09T11:43:04.381Z,4.28
2023-12-09T11:45:32.095Z,4.85
2023-12-09T11:48:01.607Z,4.93
2023-12-09T11:50:30.131Z,4.35
2023-12-09T11:52:57.816Z,4.85
2023-12-09T11:55:26.842Z,4.03
2023-12-09T11:57:54.515Z,3.88
2023-12-09T12:00:22.590Z,3.85
2023-12-09T12:02:50.365Z,5.80
2023-12-09T12:05:18.070Z,4.30
2023-12-09T12:07:46.724Z,4.13
2023-12-09T12:10:15.620Z,2.05
2023-12-09T12:12:45.663Z,1.80
2023-12-09T12:15:14.392Z,3.75
2023-12-09T12:17:43.197Z,2.60
2023-12-09T12:20:13.258Z,1.83
2023-12-09T12:22:41.472Z,3.20
2023-12-09T12:25:10.622Z,3.15
2023-12-09T12:27:43.915Z,3.45
2023-12-09T12:30:14.226Z,1.63
2023-12-09T12:32:42.100Z,2.30
2023-12-09T12:35:10.596Z,4.20
2023-12-09T12:37:38.484Z,2.67
2023-12-09T12:40:07.548Z,4.10
2023-12-09T12:42:35.452Z,3.17
2023-12-09T12:45:05.116Z,2.33
2023-12-09T12:47:34.588Z,3.78
2023-12-09T12:50:02.297Z,4.18
2023-12-09T12:52:30.411Z,3.72
2023-12-09T12:54:59.066Z,3.75
2023-12-09T12:57:26.852Z,2.35
2023-12-09T12:59:58.868Z,3.80
2023-12-09T13:02:30.313Z,4.07
2023-12-09T13:04:59.578Z,3.10
2023-12-09T13:07:27.404Z,3.85
2023-12-09T13:09:55.145Z,2.72
2023-12-09T13:12:22.909Z,2.78
2023-12-09T13:14:50.647Z,3.42
2023-12-09T13:17:18.393Z,6.18
2023-12-09T13:19:46.382Z,2.33
2023-12-09T13:22:15.789Z,3.22
2023-12-09T13:24:43.509Z,11.10
2023-12-09T13:27:11.437Z,13.55
2023-12-09T13:29:39.273Z,4.88
2023-12-09T13:32:07.435Z,5.00
2023-12-09T13:34:35.239Z,3.88
2023-12-09T13:37:03.037Z,3.80
2023-12-09T13:39:32.334Z,2.85
2023-12-09T13:42:00.122Z,2.10
2023-12-09T13:44:27.862Z,4.38
2023-12-09T13:46:55.515Z,5.18
2023-12-09T13:49:23.341Z,6.65
2023-12-09T13:51:51.411Z,6.43
2023-12-09T13:54:21.247Z,4.30
2023-12-09T13:56:50.430Z,5.25
2023-12-09T13:59:18.279Z,5.28
2023-12-09T14:01:46.677Z,4.90
2023-12-09T14:04:14.476Z,9.00
2023-12-09T14:06:41.481Z,5.57
2023-12-09T14:09:10.024Z,9.85
2023-12-09T14:11:39.663Z,5.57
2023-12-09T14:14:08.750Z,5.55
2023-12-09T14:16:37.362Z,4.30
2023-12-09T14:19:05.487Z,5.57
2023-12-09T14:21:34.109Z,5.03
2023-12-09T14:24:01.928Z,3.65
2023-12-09T14:26:30.542Z,4.20
2023-12-09T14:28:58.847Z,3.33
2023-12-09T14:31:27.865Z,1.88
2023-12-09T14:33:55.915Z,3.13
2023-12-09T14:36:24.170Z,3.40
2023-12-09T14:38:52.022Z,2.88
2023-12-09T14:41:19.929Z,2.72
2023-12-09T14:43:49.363Z,2.55
2023-12-09T14:46:18.881Z,1.15
2023-12-09T14:48:48.109Z,2.13
2023-12-09T14:51:15.923Z,2.40
2023-12-09T14:53:43.601Z,2.08
2023-12-09T14:56:11.326Z,3.92
2023-12-09T14:58:39.242Z,2.67
2023-12-09T15:01:07.243Z,2.17
2023-12-09T15:03:35.239Z,10.13
2023-12-09T15:06:05.696Z,8.05
2023-12-09T15:08:33.522Z,2.13
2023-12-09T15:11:01.274Z,1.45
2023-12-09T15:13:28.981Z,1.95
2023-12-09T15:15:56.941Z,4.25
2023-12-09T15:18:24.851Z,4.47
2023-12-09T15:20:52.770Z,2.38
2023-12-09T15:23:22.319Z,2.63
2023-12-09T15:25:50.537Z,3.13
2023-12-09T15:28:18.906Z,1.75
2023-12-09T15:30:48.174Z,2.00
2023-12-09T15:33:16.103Z,3.15
2023-12-09T15:35:43.990Z,2.88
2023-12-09T15:38:12.288Z,4.15
2023-12-09T15:40:41.372Z,3.53
2023-12-09T15:43:09.320Z,4.75
2023-12-09T15:45:37.140Z,4.03
2023-12-09T15:48:05.735Z,3.35
2023-12-09T15:50:33.480Z,4.38
2023-12-09T15:53:01.243Z,3.45
2023-12-09T15:55:30.652Z,4.70
2023-12-09T15:58:00.656Z,3.40
2023-12-09T16:00:28.717Z,3.10
2023-12-09T16:02:56.774Z,2.15
2023-12-09T16:05:24.845Z,3.97
2023-12-09T16:07:52.903Z,2.38
2023-12-09T16:10:20.757Z,3.85
2023-12-09T16:12:48.512Z,5.18
2023-12-09T16:15:18.856Z,2.55
2023-12-09T16:17:48.089Z,2.80
2023-12-09T16:20:16.667Z,2.10
2023-12-09T16:22:44.715Z,2.50
2023-12-09T16:25:12.485Z,4.90
2023-12-09T16:27:40.316Z,2.90
2023-12-09T16:30:08.995Z,2.75
2023-12-09T16:32:38.275Z,6.80
2023-12-09T16:35:06.630Z,3.75
2023-12-09T16:37:35.210Z,2.47
2023-12-09T16:40:02.974Z,3.00
2023-12-09T16:42:30.988Z,3.75
2023-12-09T16:44:58.914Z,3.70
2023-12-09T16:47:28.331Z,8.05
2023-12-09T16:49:57.435Z,10.55
2023-12-09T16:52:25.465Z,7.00
2023-12-09T16:54:53.389Z,7.47
2023-12-09T16:57:21.178Z,6.20
2023-12-09T16:59:48.960Z,7.13
2023-12-09T17:02:16.667Z,4.45
2023-12-09T17:04:44.502Z,6.90
2023-12-09T17:07:13.656Z,5.53
2023-12-09T17:09:41.577Z,4.22
2023-12-09T17:12:10.490Z,7.28
2023-12-09T17:14:38.314Z,5.03
2023-12-09T17:17:06.533Z,5.13
2023-12-09T17:19:34.291Z,4.05
2023-12-09T17:22:02.433Z,8.75
2023-12-09T17:24:31.670Z,4.38
2023-12-09T17:26:59.620Z,4.32
2023-12-09T17:29:27.907Z,2.38
2023-12-09T17:31:55.633Z,2.42
2023-12-09T17:34:23.434Z,2.30
2023-12-09T17:36:51.748Z,3.92
2023-12-09T17:39:19.612Z,3.28
2023-12-09T17:41:48.648Z,2.60
2023-12-09T17:44:16.370Z,2.30
2023-12-09T17:46:44.188Z,1.98
2023-12-09T17:49:11.986Z,2.50
2023-12-09T17:51:39.801Z,2.70
2023-12-09T17:54:07.812Z,4.95
2023-12-09T17:56:36.069Z,3.42
2023-12-09T17:59:05.121Z,4.60
2023-12-09T18:01:33.172Z,9.60
2023-12-09T18:04:01.353Z,14.15
2023-12-09T18:06:29.954Z,10.38
2023-12-09T18:08:58.190Z,11.57
2023-12-09T18:11:25.856Z,13.88
2023-12-09T18:13:53.553Z,19.73
2023-12-09T18:16:23.058Z,34.90
2023-12-09T18:18:50.974Z,11.15
2023-12-09T18:21:18.746Z,11.70
2023-12-09T18:23:46.589Z,9.35
2023-12-09T18:26:15.347Z,8.85
2023-12-09T18:28:44.913Z,7.75
2023-12-09T18:31:12.868Z,5.95
2023-12-09T18:33:42.497Z,4.88
2023-12-09T18:36:10.887Z,5.30
2023-12-09T18:38:38.675Z,4.55
2023-12-09T18:41:06.956Z,4.65
2023-12-09T18:43:34.691Z,5.88
2023-12-09T18:46:02.501Z,5.72
2023-12-09T18:48:30.499Z,5.18
2023-12-09T18:51:01.067Z,9.48
2023-12-09T18:53:28.794Z,9.55
2023-12-09T18:55:56.571Z,8.75
2023-12-09T18:58:24.493Z,9.55
2023-12-09T19:00:58.978Z,10.45
2023-12-09T19:03:32.958Z,9.23
2023-12-09T19:06:02.471Z,8.10
2023-12-09T19:08:30.258Z,4.35
2023-12-09T19:10:58.019Z,5.97
2023-12-09T19:13:25.696Z,6.85
2023-12-09T19:15:53.627Z,10.25
2023-12-09T19:18:22.456Z,5.13
2023-12-09T19:20:50.451Z,6.68
2023-12-09T19:23:19.515Z,6.72
2023-12-09T19:25:47.564Z,5.00
2023-12-09T19:28:15.697Z,3.63
2023-12-09T19:30:43.553Z,2.15
2023-12-09T19:33:11.449Z,1.48
2023-12-09T19:35:39.234Z,1.70
2023-12-09T19:38:06.972Z,0.80
2023-12-09T19:40:36.488Z,1.02
2023-12-09T19:43:04.316Z,0.75
2023-12-09T19:45:34.404Z,0.47
2023-12-09T19:48:02.250Z,0.20
2023-12-09T19:50:31.229Z,1.13
2023-12-09T19:53:00.557Z,0.98
2023-12-09T19:55:28.255Z,0.35
2023-12-09T19:57:58.189Z,0.60
2023-12-09T20:00:25.969Z,0.88
2023-12-09T20:02:53.851Z,0.63
2023-12-09T20:05:23.027Z,0.85
2023-12-09T20:07:50.741Z,0.70
2023-12-09T20:10:18.450Z,0.68
2023-12-09T20:12:46.265Z,0.20
2023-12-09T20:15:16.095Z,2.97
2023-12-09T20:17:43.924Z,1.17
2023-12-09T20:20:12.538Z,0.93
2023-12-09T20:22:40.469Z,0.68
2023-12-09T20:25:08.765Z,1.00
2023-12-09T20:27:36.943Z,0.70
2023-12-09T20:30:05.504Z,0.73
2023-12-09T20:32:34.808Z,0.40
2023-12-09T20:35:02.594Z,0.38
2023-12-09T20:37:30.309Z,1.02
2023-12-09T20:39:58.625Z,0.50
2023-12-09T20:42:26.661Z,0.77
2023-12-09T20:44:54.864Z,1.17
2023-12-09T20:47:22.566Z,0.35
2023-12-09T20:49:51.925Z,0.85
2023-12-09T20:52:20.312Z,0.40
2023-12-09T20:54:48.304Z,0.77
2023-12-09T20:57:16.126Z,0.10
2023-12-09T20:59:44.203Z,0.30
2023-12-09T21:02:12.117Z,0.38
2023-12-09T21:04:44.625Z,1.40
2023-12-09T21:07:13.799Z,1.00
2023-12-09T21:09:41.650Z,0.68
2023-12-09T21:12:10.236Z,0.28
2023-12-09T21:14:39.074Z,0.60
2023-12-09T21:17:06.788Z,1.02
2023-12-09T21:19:36.040Z,1.00
2023-12-09T21:22:04.814Z,0.57
2023-12-09T21:24:34.108Z,0.52
2023-12-09T21:27:01.883Z,1.92
2023-12-09T21:29:29.671Z,0.82
2023-12-09T21:31:57.466Z,1.65
2023-12-09T21:34:25.308Z,0.63
2023-12-09T21:36:53.152Z,1.05
2023-12-09T21:39:21.038Z,2.13
2023-12-09T21:41:50.200Z,0.57
2023-12-09T21:44:18.416Z,2.72
2023-12-09T21:46:46.067Z,0.40
2023-12-09T21:49:14.439Z,0.80
2023-12-09T21:51:42.341Z,1.25
2023-12-09T21:54:10.525Z,2.05
2023-12-09T21:56:38.227Z,0.45
2023-12-09T21:59:07.393Z,1.13
2023-12-09T22:01:36.596Z,0.93
2023-12-09T22:04:05.376Z,1.73
2023-12-09T22:06:33.316Z,1.33
2023-12-09T22:09:01.034Z,3.10
2023-12-09T22:11:28.811Z,2.45
2023-12-09T22:13:56.754Z,2.20
2023-12-09T22:16:25.862Z,4.18
2023-12-09T22:18:53.741Z,2.60
2023-12-09T22:21:21.807Z,2.03
2023-12-09T22:23:49.610Z,1.30
2023-12-09T22:26:17.333Z,3.80
2023-12-09T22:28:45.000Z,4.00
2023-12-09T22:31:13.414Z,2.95
2023-12-09T22:33:42.662Z,6.28
2023-12-09T22:36:11.508Z,4.68
2023-12-09T22:38:39.322Z,5.85
2023-12-09T22:41:07.292Z,7.38
2023-12-09T22:43:35.160Z,4.28
2023-12-09T22:46:02.863Z,8.23
2023-12-09T22:48:30.822Z,5.47
2023-12-09T22:50:59.927Z,9.27
2023-12-09T22:53:27.670Z,5.20
2023-12-09T22:56:11.989Z,5.53
2023-12-09T22:58:41.709Z,8.88
2023-12-09T23:01:09.528Z,10.00
2023-12-09T23:03:37.308Z,7.68
2023-12-09T23:06:07.127Z,5.93
2023-12-09T23:08:37.934Z,6.30
2023-12-09T23:11:07.745Z,10.93
2023-12-09T23:13:35.479Z,9.57
2023-12-09T23:16:03.443Z,14.07
2023-12-09T23:18:31.334Z,10.43
2023-12-09T23:20:59.062Z,10.60
2023-12-09T23:23:28.130Z,9.93
2023-12-09T23:25:55.827Z,12.52
2023-12-09T23:28:23.759Z,13.90
2023-12-09T23:30:51.788Z,11.93
2023-12-09T23:33:20.132Z,11.95
2023-12-09T23:35:47.995Z,17.60
2023-12-09T23:38:15.865Z,19.23
2023-12-09T23:40:45.068Z,13.15
2023-12-09T23:43:13.893Z,13.63
2023-12-09T23:45:41.671Z,18.95
2023-12-09T23:48:09.631Z,18.02
2023-12-09T23:50:37.401Z,10.85
2023-12-09T23:53:05.117Z,14.85
2023-12-09T23:55:32.867Z,16.75
2023-12-09T23:58:01.941Z,14.25
